sensor_id;sensor_type;location;lat;lon;timestamp;temperature;humidity
70593;DHT22;58294;42.988;20.338;2023-01-15T00:00:47;154.30;2252.80
70593;DHT22;58294;42.988;20.338;2023-01-15T00:03:13;154.30;2252.80
70593;DHT22;58294;42.988;20.338;2023-01-15T00:05:38;154.30;2252.80
70593;DHT22;58294;42.988;20.338;2023-01-15T00:08:05;154.20;2252.80
70593;DHT22;58294;42.988;20.338;2023-01-15T00:10:30;154.20;2252.80
70593;DHT22;58294;42.988;20.338;2023-01-15T00:12:56;154.20;2252.80
70593;DHT22;58294;42.988;20.338;2023-01-15T00:15:22;154.20;2252.80
70593;DHT22;58294;42.988;20.338;2023-01-15T00:17:48;154.20;2252.80
70593;DHT22;58294;42.988;20.338;2023-01-15T00:20:13;154.30;2252.80
70593;DHT22;58294;42.988;20.338;2023-01-15T00:22:39;154.40;2252.80
70593;DHT22;58294;42.988;20.338;2023-01-15T00:25:06;154.30;2252.80
70593;DHT22;58294;42.988;20.338;2023-01-15T00:27:50;154.30;2252.80
70593;DHT22;58294;42.988;20.338;2023-01-15T00:30:16;154.30;2252.80
70593;DHT22;58294;42.988;20.338;2023-01-15T00:32:43;154.30;2252.80
70593;DHT22;58294;42.988;20.338;2023-01-15T00:35:19;154.30;2252.80
70593;DHT22;58294;42.988;20.338;2023-01-15T00:37:45;154.40;2252.80
70593;DHT22;58294;42.988;20.338;2023-01-15T00:40:12;154.40;2252.80
70593;DHT22;58294;42.988;20.338;2023-01-15T00:42:38;154.30;2252.80
70593;DHT22;58294;42.988;20.338;2023-01-15T00:45:05;154.20;2252.80
70593;DHT22;58294;42.988;20.338;2023-01-15T00:47:42;154.20;2252.80
70593;DHT22;58294;42.988;20.338;2023-01-15T00:50:13;154.20;2252.80
70593;DHT22;58294;42.988;20.338;2023-01-15T00:52:40;154.20;2252.80
70593;DHT22;58294;42.988;20.338;2023-01-15T00:55:07;154.20;2252.80
70593;DHT22;58294;42.988;20.338;2023-01-15T00:57:33;154.30;2252.80
70593;DHT22;58294;42.988;20.338;2023-01-15T00:59:59;154.20;2252.80
70593;DHT22;58294;42.988;20.338;2023-01-15T01:02:24;154.10;2252.80
70593;DHT22;58294;42.988;20.338;2023-01-15T01:04:50;154.10;2252.80
70593;DHT22;58294;42.988;20.338;2023-01-15T01:07:16;154.20;2252.80
70593;DHT22;58294;42.988;20.338;2023-01-15T01:09:43;154.20;2252.80
70593;DHT22;58294;42.988;20.338;2023-01-15T01:12:09;154.20;2252.80
70593;DHT22;58294;42.988;20.338;2023-01-15T01:14:36;154.20;2252.80
70593;DHT22;58294;42.988;20.338;2023-01-15T01:17:02;154.20;2252.80
70593;DHT22;58294;42.988;20.338;2023-01-15T01:19:28;154.10;2252.80
70593;DHT22;58294;42.988;20.338;2023-01-15T01:21:53;154.10;2252.80
70593;DHT22;58294;42.988;20.338;2023-01-15T01:24:22;154.00;2252.80
70593;DHT22;58294;42.988;20.338;2023-01-15T01:26:49;154.00;2252.80
70593;DHT22;58294;42.988;20.338;2023-01-15T01:29:18;154.00;2252.80
70593;DHT22;58294;42.988;20.338;2023-01-15T01:31:45;153.90;2252.80
70593;DHT22;58294;42.988;20.338;2023-01-15T01:34:12;153.90;2252.80
70593;DHT22;58294;42.988;20.338;2023-01-15T01:36:40;153.90;2252.80
70593;DHT22;58294;42.988;20.338;2023-01-15T01:39:09;153.90;2252.80
70593;DHT22;58294;42.988;20.338;2023-01-15T01:41:36;153.80;2252.80
70593;DHT22;58294;42.988;20.338;2023-01-15T01:44:06;153.80;2252.80
70593;DHT22;58294;42.988;20.338;2023-01-15T01:46:34;153.80;2252.80
70593;DHT22;58294;42.988;20.338;2023-01-15T01:49:05;153.90;2252.80
70593;DHT22;58294;42.988;20.338;2023-01-15T01:51:58;153.80;2252.80
70593;DHT22;58294;42.988;20.338;2023-01-15T01:54:28;153.80;2252.80
70593;DHT22;58294;42.988;20.338;2023-01-15T01:56:56;153.70;2252.80
70593;DHT22;58294;42.988;20.338;2023-01-15T01:59:22;153.80;2252.80
70593;DHT22;58294;42.988;20.338;2023-01-15T02:01:49;153.70;2252.80
70593;DHT22;58294;42.988;20.338;2023-01-15T02:04:17;153.80;2252.80
70593;DHT22;58294;42.988;20.338;2023-01-15T02:06:44;153.80;2252.80
70593;DHT22;58294;42.988;20.338;2023-01-15T02:09:10;153.80;2252.80
70593;DHT22;58294;42.988;20.338;2023-01-15T02:11:36;153.90;2252.80
70593;DHT22;58294;42.988;20.338;2023-01-15T02:16:51;153.90;2252.80
70593;DHT22;58294;42.988;20.338;2023-01-15T02:22:23;153.80;2252.80
70593;DHT22;58294;42.988;20.338;2023-01-15T02:25:17;153.90;2252.80
70593;DHT22;58294;42.988;20.338;2023-01-15T02:27:50;153.80;2252.80
70593;DHT22;58294;42.988;20.338;2023-01-15T02:30:33;153.80;2252.80
70593;DHT22;58294;42.988;20.338;2023-01-15T02:33:25;153.80;2252.80
70593;DHT22;58294;42.988;20.338;2023-01-15T02:35:55;153.80;2252.80
70593;DHT22;58294;42.988;20.338;2023-01-15T02:38:38;153.90;2252.80
70593;DHT22;58294;42.988;20.338;2023-01-15T02:41:07;153.90;2252.80
70593;DHT22;58294;42.988;20.338;2023-01-15T02:43:43;153.90;2252.80
70593;DHT22;58294;42.988;20.338;2023-01-15T02:46:10;153.80;2252.80
70593;DHT22;58294;42.988;20.338;2023-01-15T02:48:39;153.80;2252.80
70593;DHT22;58294;42.988;20.338;2023-01-15T02:51:14;153.80;2252.80
70593;DHT22;58294;42.988;20.338;2023-01-15T02:53:40;153.80;2252.80
70593;DHT22;58294;42.988;20.338;2023-01-15T02:56:12;153.80;2252.80
70593;DHT22;58294;42.988;20.338;2023-01-15T02:58:41;153.80;2252.80
70593;DHT22;58294;42.988;20.338;2023-01-15T03:01:18;153.80;2252.80
70593;DHT22;58294;42.988;20.338;2023-01-15T03:03:51;153.80;2252.80
70593;DHT22;58294;42.988;20.338;2023-01-15T03:09:08;153.70;2252.80
70593;DHT22;58294;42.988;20.338;2023-01-15T03:11:37;153.70;2252.80
70593;DHT22;58294;42.988;20.338;2023-01-15T03:14:08;153.60;2252.80
70593;DHT22;58294;42.988;20.338;2023-01-15T03:16:41;153.60;2252.80
70593;DHT22;58294;42.988;20.338;2023-01-15T03:21:49;153.70;2252.80
70593;DHT22;58294;42.988;20.338;2023-01-15T03:24:26;153.60;2252.80
70593;DHT22;58294;42.988;20.338;2023-01-15T03:26:53;128.90;2252.80
70593;DHT22;58294;42.988;20.338;2023-01-15T03:29:20;128.80;2252.80
70593;DHT22;58294;42.988;20.338;2023-01-15T03:31:47;128.70;2252.80
70593;DHT22;58294;42.988;20.338;2023-01-15T03:34:14;128.70;2252.80
70593;DHT22;58294;42.988;20.338;2023-01-15T03:36:40;128.60;2252.80
70593;DHT22;58294;42.988;20.338;2023-01-15T03:39:06;128.60;2252.80
70593;DHT22;58294;42.988;20.338;2023-01-15T03:41:47;128.60;2252.80
70593;DHT22;58294;42.988;20.338;2023-01-15T03:44:31;128.60;2252.80
70593;DHT22;58294;42.988;20.338;2023-01-15T03:53:09;128.80;2252.80
70593;DHT22;58294;42.988;20.338;2023-01-15T03:55:44;128.80;2252.80
70593;DHT22;58294;42.988;20.338;2023-01-15T03:58:33;128.80;2252.80
70593;DHT22;58294;42.988;20.338;2023-01-15T04:01:03;128.80;2252.80
70593;DHT22;58294;42.988;20.338;2023-01-15T04:03:33;128.80;2252.80
70593;DHT22;58294;42.988;20.338;2023-01-15T04:06:01;128.80;2252.80
70593;DHT22;58294;42.988;20.338;2023-01-15T04:08:31;128.80;2252.80
70593;DHT22;58294;42.988;20.338;2023-01-15T04:11:00;128.80;2252.80
70593;DHT22;58294;42.988;20.338;2023-01-15T04:13:26;128.80;2252.80
70593;DHT22;58294;42.988;20.338;2023-01-15T04:15:52;128.70;2252.80
70593;DHT22;58294;42.988;20.338;2023-01-15T04:18:18;128.70;2252.80
70593;DHT22;58294;42.988;20.338;2023-01-15T04:20:45;128.70;2252.80
70593;DHT22;58294;42.988;20.338;2023-01-15T04:23:10;128.70;2252.80
70593;DHT22;58294;42.988;20.338;2023-01-15T04:25:37;128.80;2252.80
70593;DHT22;58294;42.988;20.338;2023-01-15T04:28:04;128.80;2252.80
70593;DHT22;58294;42.988;20.338;2023-01-15T04:30:30;128.80;2252.80
70593;DHT22;58294;42.988;20.338;2023-01-15T04:32:55;128.80;2252.80
70593;DHT22;58294;42.988;20.338;2023-01-15T04:35:21;128.80;2252.80
70593;DHT22;58294;42.988;20.338;2023-01-15T04:37:47;128.80;2252.80
70593;DHT22;58294;42.988;20.338;2023-01-15T04:40:13;128.80;2252.80
70593;DHT22;58294;42.988;20.338;2023-01-15T04:42:58;128.80;2252.80
70593;DHT22;58294;42.988;20.338;2023-01-15T04:45:44;128.70;2252.80
70593;DHT22;58294;42.988;20.338;2023-01-15T04:48:10;128.70;2252.80
70593;DHT22;58294;42.988;20.338;2023-01-15T04:50:37;128.70;2252.80
70593;DHT22;58294;42.988;20.338;2023-01-15T04:53:03;128.70;2252.80
70593;DHT22;58294;42.988;20.338;2023-01-15T04:55:29;128.60;2252.80
70593;DHT22;58294;42.988;20.338;2023-01-15T04:57:55;128.60;2252.80
70593;DHT22;58294;42.988;20.338;2023-01-15T05:00:21;128.60;2252.80
70593;DHT22;58294;42.988;20.338;2023-01-15T05:02:48;128.70;2252.80
70593;DHT22;58294;42.988;20.338;2023-01-15T05:05:14;128.70;2252.80
70593;DHT22;58294;42.988;20.338;2023-01-15T05:07:39;128.70;2252.80
70593;DHT22;58294;42.988;20.338;2023-01-15T05:10:06;128.60;2252.80
70593;DHT22;58294;42.988;20.338;2023-01-15T05:12:32;128.60;2252.80
70593;DHT22;58294;42.988;20.338;2023-01-15T05:14:57;128.60;2252.80
70593;DHT22;58294;42.988;20.338;2023-01-15T05:17:23;128.60;2252.80
70593;DHT22;58294;42.988;20.338;2023-01-15T05:19:49;128.50;2252.80
70593;DHT22;58294;42.988;20.338;2023-01-15T05:22:14;128.50;2252.80
70593;DHT22;58294;42.988;20.338;2023-01-15T05:24:40;128.60;2252.80
70593;DHT22;58294;42.988;20.338;2023-01-15T05:27:06;128.50;2252.80
70593;DHT22;58294;42.988;20.338;2023-01-15T05:29:32;128.50;2252.80
70593;DHT22;58294;42.988;20.338;2023-01-15T05:31:59;128.50;2252.80
70593;DHT22;58294;42.988;20.338;2023-01-15T05:34:25;128.50;2252.80
70593;DHT22;58294;42.988;20.338;2023-01-15T05:36:50;128.50;2252.80
70593;DHT22;58294;42.988;20.338;2023-01-15T05:39:16;128.50;2252.80
70593;DHT22;58294;42.988;20.338;2023-01-15T05:41:42;128.40;2252.80
70593;DHT22;58294;42.988;20.338;2023-01-15T05:44:16;128.40;2252.80
70593;DHT22;58294;42.988;20.338;2023-01-15T05:46:43;128.40;2252.80
70593;DHT22;58294;42.988;20.338;2023-01-15T05:49:11;128.40;2252.80
70593;DHT22;58294;42.988;20.338;2023-01-15T05:51:38;128.30;2252.80
70593;DHT22;58294;42.988;20.338;2023-01-15T05:54:06;128.30;2252.80
70593;DHT22;58294;42.988;20.338;2023-01-15T05:56:36;128.10;2252.80
70593;DHT22;58294;42.988;20.338;2023-01-15T05:59:03;128.10;2252.80
70593;DHT22;58294;42.988;20.338;2023-01-15T06:01:29;128.00;2252.80
70593;DHT22;58294;42.988;20.338;2023-01-15T06:04:00;128.00;2252.80
70593;DHT22;58294;42.988;20.338;2023-01-15T06:06:27;103.30;2227.20
70593;DHT22;58294;42.988;20.338;2023-01-15T06:08:53;103.30;2227.20
70593;DHT22;58294;42.988;20.338;2023-01-15T06:11:19;103.20;2227.20
70593;DHT22;58294;42.988;20.338;2023-01-15T06:13:44;103.20;2227.20
70593;DHT22;58294;42.988;20.338;2023-01-15T06:16:10;103.20;2227.20
70593;DHT22;58294;42.988;20.338;2023-01-15T06:18:37;103.10;2227.20
70593;DHT22;58294;42.988;20.338;2023-01-15T06:21:05;103.10;2227.20
70593;DHT22;58294;42.988;20.338;2023-01-15T06:23:31;103.00;2227.20
70593;DHT22;58294;42.988;20.338;2023-01-15T06:26:01;103.00;2227.20
70593;DHT22;58294;42.988;20.338;2023-01-15T06:28:27;103.00;2227.20
70593;DHT22;58294;42.988;20.338;2023-01-15T06:30:53;103.00;2227.20
70593;DHT22;58294;42.988;20.338;2023-01-15T06:33:19;102.90;2227.20
70593;DHT22;58294;42.988;20.338;2023-01-15T06:35:45;102.90;2227.20
70593;DHT22;58294;42.988;20.338;2023-01-15T06:38:11;102.90;2227.20
70593;DHT22;58294;42.988;20.338;2023-01-15T06:40:37;102.90;2227.20
70593;DHT22;58294;42.988;20.338;2023-01-15T06:43:02;102.80;2227.20
70593;DHT22;58294;42.988;20.338;2023-01-15T06:45:47;102.80;2227.20
70593;DHT22;58294;42.988;20.338;2023-01-15T06:48:50;102.80;2227.20
70593;DHT22;58294;42.988;20.338;2023-01-15T06:51:16;102.80;2227.20
70593;DHT22;58294;42.988;20.338;2023-01-15T06:53:45;102.80;2227.20
70593;DHT22;58294;42.988;20.338;2023-01-15T06:56:12;102.80;2227.20
70593;DHT22;58294;42.988;20.338;2023-01-15T06:58:41;102.80;2227.20
70593;DHT22;58294;42.988;20.338;2023-01-15T07:01:13;102.90;2227.20
70593;DHT22;58294;42.988;20.338;2023-01-15T07:03:39;102.80;2227.20
70593;DHT22;58294;42.988;20.338;2023-01-15T07:06:11;102.80;2227.20
70593;DHT22;58294;42.988;20.338;2023-01-15T07:08:37;102.80;2227.20
70593;DHT22;58294;42.988;20.338;2023-01-15T07:11:05;102.80;2227.20
70593;DHT22;58294;42.988;20.338;2023-01-15T07:13:32;102.80;2227.20
70593;DHT22;58294;42.988;20.338;2023-01-15T07:16:00;102.90;2227.20
70593;DHT22;58294;42.988;20.338;2023-01-15T07:18:28;102.90;2227.20
70593;DHT22;58294;42.988;20.338;2023-01-15T07:20:55;102.90;2227.20
70593;DHT22;58294;42.988;20.338;2023-01-15T07:23:23;102.90;2227.20
70593;DHT22;58294;42.988;20.338;2023-01-15T07:25:53;102.90;2227.20
70593;DHT22;58294;42.988;20.338;2023-01-15T07:28:20;103.00;2227.20
70593;DHT22;58294;42.988;20.338;2023-01-15T07:30:46;103.00;2227.20
70593;DHT22;58294;42.988;20.338;2023-01-15T07:33:12;103.00;2227.20
70593;DHT22;58294;42.988;20.338;2023-01-15T07:35:38;103.00;2227.20
70593;DHT22;58294;42.988;20.338;2023-01-15T07:38:04;103.10;2227.20
70593;DHT22;58294;42.988;20.338;2023-01-15T07:40:29;103.20;2227.20
70593;DHT22;58294;42.988;20.338;2023-01-15T07:42:55;103.10;2227.20
70593;DHT22;58294;42.988;20.338;2023-01-15T07:45:40;103.20;2227.20
70593;DHT22;58294;42.988;20.338;2023-01-15T07:48:25;103.20;2227.20
70593;DHT22;58294;42.988;20.338;2023-01-15T07:51:09;103.20;2227.20
70593;DHT22;58294;42.988;20.338;2023-01-15T07:53:35;103.30;2227.20
70593;DHT22;58294;42.988;20.338;2023-01-15T07:56:01;103.30;2227.20
70593;DHT22;58294;42.988;20.338;2023-01-15T07:58:27;103.30;2227.20
70593;DHT22;58294;42.988;20.338;2023-01-15T08:00:53;128.00;2252.80
70593;DHT22;58294;42.988;20.338;2023-01-15T08:03:18;128.10;2252.80
70593;DHT22;58294;42.988;20.338;2023-01-15T08:05:44;128.30;2252.80
70593;DHT22;58294;42.988;20.338;2023-01-15T08:08:14;128.30;2252.80
70593;DHT22;58294;42.988;20.338;2023-01-15T08:10:40;128.30;2252.80
70593;DHT22;58294;42.988;20.338;2023-01-15T08:13:26;128.30;2252.80
70593;DHT22;58294;42.988;20.338;2023-01-15T08:16:10;128.40;2252.80
70593;DHT22;58294;42.988;20.338;2023-01-15T08:18:37;128.30;2252.80
70593;DHT22;58294;42.988;20.338;2023-01-15T08:21:03;128.20;2252.80
70593;DHT22;58294;42.988;20.338;2023-01-15T08:23:29;128.20;2252.80
70593;DHT22;58294;42.988;20.338;2023-01-15T08:25:58;128.20;2252.80
70593;DHT22;58294;42.988;20.338;2023-01-15T08:28:24;128.20;2252.80
70593;DHT22;58294;42.988;20.338;2023-01-15T08:30:50;128.20;2252.80
70593;DHT22;58294;42.988;20.338;2023-01-15T08:33:16;128.20;2252.80
70593;DHT22;58294;42.988;20.338;2023-01-15T08:35:41;128.20;2252.80
70593;DHT22;58294;42.988;20.338;2023-01-15T08:38:07;128.20;2252.80
70593;DHT22;58294;42.988;20.338;2023-01-15T08:40:34;128.30;2252.80
70593;DHT22;58294;42.988;20.338;2023-01-15T08:43:01;128.30;2252.80
70593;DHT22;58294;42.988;20.338;2023-01-15T08:45:27;128.40;2252.80
70593;DHT22;58294;42.988;20.338;2023-01-15T08:47:55;128.50;2252.80
70593;DHT22;58294;42.988;20.338;2023-01-15T08:50:22;128.50;2252.80
70593;DHT22;58294;42.988;20.338;2023-01-15T08:52:48;128.50;2252.80
70593;DHT22;58294;42.988;20.338;2023-01-15T08:55:14;128.50;2252.80
70593;DHT22;58294;42.988;20.338;2023-01-15T08:57:40;128.60;2252.80
70593;DHT22;58294;42.988;20.338;2023-01-15T09:00:06;128.50;2252.80
70593;DHT22;58294;42.988;20.338;2023-01-15T09:02:32;128.50;2252.80
70593;DHT22;58294;42.988;20.338;2023-01-15T09:04:58;128.50;2252.80
70593;DHT22;58294;42.988;20.338;2023-01-15T09:07:23;128.50;2252.80
70593;DHT22;58294;42.988;20.338;2023-01-15T09:09:49;128.50;2252.80
70593;DHT22;58294;42.988;20.338;2023-01-15T09:12:15;128.40;2252.80
70593;DHT22;58294;42.988;20.338;2023-01-15T09:14:41;128.50;2252.80
70593;DHT22;58294;42.988;20.338;2023-01-15T09:17:06;128.50;2252.80
70593;DHT22;58294;42.988;20.338;2023-01-15T09:19:32;128.50;2252.80
70593;DHT22;58294;42.988;20.338;2023-01-15T09:21:58;128.50;2252.80
70593;DHT22;58294;42.988;20.338;2023-01-15T09:24:24;128.60;2252.80
70593;DHT22;58294;42.988;20.338;2023-01-15T09:26:49;128.70;2252.80
70593;DHT22;58294;42.988;20.338;2023-01-15T09:29:17;128.80;2252.80
70593;DHT22;58294;42.988;20.338;2023-01-15T09:31:43;128.80;2252.80
70593;DHT22;58294;42.988;20.338;2023-01-15T09:34:09;128.90;2252.80
70593;DHT22;58294;42.988;20.338;2023-01-15T09:36:35;128.80;2252.80
70593;DHT22;58294;42.988;20.338;2023-01-15T09:39:03;128.80;2252.80
70593;DHT22;58294;42.988;20.338;2023-01-15T09:44:39;153.60;2252.80
70593;DHT22;58294;42.988;20.338;2023-01-15T09:47:20;153.60;2252.80
70593;DHT22;58294;42.988;20.338;2023-01-15T09:55:27;153.70;2252.80
70593;DHT22;58294;42.988;20.338;2023-01-15T09:57:57;153.80;2252.80
70593;DHT22;58294;42.988;20.338;2023-01-15T10:00:26;153.70;2252.80
70593;DHT22;58294;42.988;20.338;2023-01-15T10:03:03;153.60;2252.80
70593;DHT22;58294;42.988;20.338;2023-01-15T10:10:46;153.70;2252.80
70593;DHT22;58294;42.988;20.338;2023-01-15T10:15:47;154.00;2252.80
70593;DHT22;58294;42.988;20.338;2023-01-15T10:18:15;154.10;2252.80
70593;DHT22;58294;42.988;20.338;2023-01-15T10:21:44;154.10;2252.80
70593;DHT22;58294;42.988;20.338;2023-01-15T10:31:46;154.10;2252.80
70593;DHT22;58294;42.988;20.338;2023-01-15T10:43:18;154.20;2252.80
70593;DHT22;58294;42.988;20.338;2023-01-15T10:45:49;154.20;2252.80
70593;DHT22;58294;42.988;20.338;2023-01-15T10:48:37;154.20;2252.80
70593;DHT22;58294;42.988;20.338;2023-01-15T10:51:06;154.20;2252.80
70593;DHT22;58294;42.988;20.338;2023-01-15T11:01:33;154.20;2252.80
70593;DHT22;58294;42.988;20.338;2023-01-15T11:03:59;154.10;2252.80
70593;DHT22;58294;42.988;20.338;2023-01-15T11:06:28;154.10;2252.80
70593;DHT22;58294;42.988;20.338;2023-01-15T11:08:56;154.20;2252.80
70593;DHT22;58294;42.988;20.338;2023-01-15T11:14:40;154.30;2252.80
70593;DHT22;58294;42.988;20.338;2023-01-15T11:17:44;154.30;2252.80
70593;DHT22;58294;42.988;20.338;2023-01-15T11:22:57;154.40;2252.80
70593;DHT22;58294;42.988;20.338;2023-01-15T11:25:31;154.40;2252.80
70593;DHT22;58294;42.988;20.338;2023-01-15T11:27:59;154.30;2252.80
70593;DHT22;58294;42.988;20.338;2023-01-15T11:30:28;154.50;2252.80
70593;DHT22;58294;42.988;20.338;2023-01-15T11:32:56;179.30;2252.80
70593;DHT22;58294;42.988;20.338;2023-01-15T11:35:22;179.20;2252.80
70593;DHT22;58294;42.988;20.338;2023-01-15T11:37:48;179.40;2252.80
70593;DHT22;58294;42.988;20.338;2023-01-15T11:40:21;179.40;2252.80
70593;DHT22;58294;42.988;20.338;2023-01-15T11:42:50;179.80;2252.80
70593;DHT22;58294;42.988;20.338;2023-01-15T11:45:49;180.00;2252.80
70593;DHT22;58294;42.988;20.338;2023-01-15T11:48:44;204.80;2252.80
70593;DHT22;58294;42.988;20.338;2023-01-15T11:51:29;205.40;2252.80
70593;DHT22;58294;42.988;20.338;2023-01-15T11:54:03;205.70;2252.80
70593;DHT22;58294;42.988;20.338;2023-01-15T11:56:30;230.60;2252.80
70593;DHT22;58294;42.988;20.338;2023-01-15T11:59:01;256.10;2252.80
70593;DHT22;58294;42.988;20.338;2023-01-15T12:01:34;256.50;2252.80
70593;DHT22;58294;42.988;20.338;2023-01-15T12:04:17;256.80;2252.80
70593;DHT22;58294;42.988;20.338;2023-01-15T12:06:46;281.90;2278.40
70593;DHT22;58294;42.988;20.338;2023-01-15T12:25:23;332.80;2329.60
70593;DHT22;58294;42.988;20.338;2023-01-15T12:35:57;282.40;2278.40
70593;DHT22;58294;42.988;20.338;2023-01-15T12:39:01;282.10;2150.40
70593;DHT22;58294;42.988;20.338;2023-01-15T12:41:33;281.70;2227.20
70593;DHT22;58294;42.988;20.338;2023-01-15T12:44:26;256.80;2176.00
70593;DHT22;58294;42.988;20.338;2023-01-15T12:47:17;256.50;2252.80
70593;DHT22;58294;42.988;20.338;2023-01-15T12:49:48;256.30;2252.80
70593;DHT22;58294;42.988;20.338;2023-01-15T12:52:26;256.00;2252.80
70593;DHT22;58294;42.988;20.338;2023-01-15T12:55:05;231.20;2099.20
70593;DHT22;58294;42.988;20.338;2023-01-15T12:57:36;231.00;2252.80
70593;DHT22;58294;42.988;20.338;2023-01-15T13:05:33;230.80;2252.80
70593;DHT22;58294;42.988;20.338;2023-01-15T13:08:05;230.90;2252.80
70593;DHT22;58294;42.988;20.338;2023-01-15T13:10:36;230.90;2252.80
70593;DHT22;58294;42.988;20.338;2023-01-15T13:13:18;230.90;2252.80
70593;DHT22;58294;42.988;20.338;2023-01-15T13:19:17;230.80;2252.80
70593;DHT22;58294;42.988;20.338;2023-01-15T13:21:48;230.80;2252.80
70593;DHT22;58294;42.988;20.338;2023-01-15T13:32:25;230.80;2252.80
70593;DHT22;58294;42.988;20.338;2023-01-15T13:35:01;230.70;2252.80
70593;DHT22;58294;42.988;20.338;2023-01-15T13:37:48;230.70;2252.80
70593;DHT22;58294;42.988;20.338;2023-01-15T13:43:00;230.80;2252.80
70593;DHT22;58294;42.988;20.338;2023-01-15T13:50:50;230.80;2252.80
70593;DHT22;58294;42.988;20.338;2023-01-15T13:55:52;230.80;2252.80
70593;DHT22;58294;42.988;20.338;2023-01-15T13:58:27;230.70;2227.20
70593;DHT22;58294;42.988;20.338;2023-01-15T14:01:23;230.70;2252.80
70593;DHT22;58294;42.988;20.338;2023-01-15T14:09:04;230.70;2252.80
70593;DHT22;58294;42.988;20.338;2023-01-15T14:23:04;230.60;2252.80
70593;DHT22;58294;42.988;20.338;2023-01-15T14:34:18;205.70;2252.80
70593;DHT22;58294;42.988;20.338;2023-01-15T14:36:47;205.60;2252.80
70593;DHT22;58294;42.988;20.338;2023-01-15T14:45:26;205.60;2252.80
70593;DHT22;58294;42.988;20.338;2023-01-15T14:47:56;205.50;2176.00
70593;DHT22;58294;42.988;20.338;2023-01-15T14:52:54;205.30;2201.60
70593;DHT22;58294;42.988;20.338;2023-01-15T14:55:21;205.20;2201.60
70593;DHT22;58294;42.988;20.338;2023-01-15T14:58:02;205.20;2150.40
70593;DHT22;58294;42.988;20.338;2023-01-15T15:00:37;205.00;2176.00
70593;DHT22;58294;42.988;20.338;2023-01-15T15:03:32;204.90;2150.40
70593;DHT22;58294;42.988;20.338;2023-01-15T15:05:59;204.80;2201.60
70593;DHT22;58294;42.988;20.338;2023-01-15T15:08:29;204.80;2227.20
70593;DHT22;58294;42.988;20.338;2023-01-15T15:10:57;204.80;2252.80
70593;DHT22;58294;42.988;20.338;2023-01-15T15:13:41;180.10;2201.60
70593;DHT22;58294;42.988;20.338;2023-01-15T15:18:46;180.00;2201.60
70593;DHT22;58294;42.988;20.338;2023-01-15T15:21:21;179.90;2201.60
70593;DHT22;58294;42.988;20.338;2023-01-15T15:23:54;179.90;2201.60
70593;DHT22;58294;42.988;20.338;2023-01-15T15:29:04;179.70;2201.60
70593;DHT22;58294;42.988;20.338;2023-01-15T15:31:34;179.60;2201.60
70593;DHT22;58294;42.988;20.338;2023-01-15T15:34:00;179.60;2176.00
70593;DHT22;58294;42.988;20.338;2023-01-15T15:36:30;179.50;2201.60
70593;DHT22;58294;42.988;20.338;2023-01-15T15:38:59;179.50;2227.20
70593;DHT22;58294;42.988;20.338;2023-01-15T15:41:31;179.50;2201.60
70593;DHT22;58294;42.988;20.338;2023-01-15T15:44:30;179.40;2201.60
70593;DHT22;58294;42.988;20.338;2023-01-15T15:47:19;179.30;2201.60
70593;DHT22;58294;42.988;20.338;2023-01-15T15:50:04;179.30;2201.60
70593;DHT22;58294;42.988;20.338;2023-01-15T15:52:30;179.20;2201.60
70593;DHT22;58294;42.988;20.338;2023-01-15T15:55:00;179.20;2201.60
70593;DHT22;58294;42.988;20.338;2023-01-15T15:57:29;154.50;2176.00
70593;DHT22;58294;42.988;20.338;2023-01-15T15:59:55;154.40;2176.00
70593;DHT22;58294;42.988;20.338;2023-01-15T16:05:02;154.30;2201.60
70593;DHT22;58294;42.988;20.338;2023-01-15T16:07:30;154.30;2201.60
70593;DHT22;58294;42.988;20.338;2023-01-15T16:10:25;154.20;2176.00
70593;DHT22;58294;42.988;20.338;2023-01-15T16:12:54;154.10;2150.40
70593;DHT22;58294;42.988;20.338;2023-01-15T16:15:32;154.00;2150.40
70593;DHT22;58294;42.988;20.338;2023-01-15T16:18:00;153.90;2150.40
70593;DHT22;58294;42.988;20.338;2023-01-15T16:20:26;153.70;2150.40
70593;DHT22;58294;42.988;20.338;2023-01-15T16:23:02;153.60;2176.00
70593;DHT22;58294;42.988;20.338;2023-01-15T16:25:36;153.60;2176.00
70593;DHT22;58294;42.988;20.338;2023-01-15T16:28:04;128.90;2201.60
70593;DHT22;58294;42.988;20.338;2023-01-15T16:30:31;128.80;2176.00
70593;DHT22;58294;42.988;20.338;2023-01-15T16:33:02;128.70;2176.00
70593;DHT22;58294;42.988;20.338;2023-01-15T16:35:30;128.60;2201.60
70593;DHT22;58294;42.988;20.338;2023-01-15T16:37:59;128.70;2252.80
70593;DHT22;58294;42.988;20.338;2023-01-15T16:40:33;128.70;2252.80
70593;DHT22;58294;42.988;20.338;2023-01-15T16:43:20;128.80;2252.80
70593;DHT22;58294;42.988;20.338;2023-01-15T16:46:05;128.70;2227.20
70593;DHT22;58294;42.988;20.338;2023-01-15T16:48:33;128.60;2176.00
70593;DHT22;58294;42.988;20.338;2023-01-15T16:51:22;128.50;2176.00
70593;DHT22;58294;42.988;20.338;2023-01-15T16:53:48;128.40;2176.00
70593;DHT22;58294;42.988;20.338;2023-01-15T16:59:17;128.20;2227.20
70593;DHT22;58294;42.988;20.338;2023-01-15T17:01:46;128.10;2201.60
70593;DHT22;58294;42.988;20.338;2023-01-15T17:09:27;103.30;2227.20
70593;DHT22;58294;42.988;20.338;2023-01-15T17:11:55;103.30;2201.60
70593;DHT22;58294;42.988;20.338;2023-01-15T17:14:23;103.30;2201.60
70593;DHT22;58294;42.988;20.338;2023-01-15T17:19:48;103.20;2227.20
70593;DHT22;58294;42.988;20.338;2023-01-15T17:22:17;103.20;2227.20
70593;DHT22;58294;42.988;20.338;2023-01-15T17:24:51;103.20;2227.20
70593;DHT22;58294;42.988;20.338;2023-01-15T17:27:17;103.30;2227.20
70593;DHT22;58294;42.988;20.338;2023-01-15T17:29:43;103.20;2227.20
70593;DHT22;58294;42.988;20.338;2023-01-15T17:32:13;103.20;2227.20
70593;DHT22;58294;42.988;20.338;2023-01-15T17:34:40;103.20;2227.20
70593;DHT22;58294;42.988;20.338;2023-01-15T17:37:06;103.20;2227.20
70593;DHT22;58294;42.988;20.338;2023-01-15T17:39:31;103.20;2227.20
70593;DHT22;58294;42.988;20.338;2023-01-15T17:41:58;103.10;2227.20
70593;DHT22;58294;42.988;20.338;2023-01-15T17:44:24;103.20;2227.20